sensor_id;sensor_type;location;lat;lon;timestamp;pressure;altitude;pressure_sealevel;temperature;humidity
12775;BME280;6451;42.630;23.382;2024-02-26T00:01:37;93890.66;;;9.70;100.00
12775;BME280;6451;42.630;23.382;2024-02-26T00:04:04;93946.03;;;10.05;100.00
12775;BME280;6451;42.630;23.382;2024-02-26T00:06:33;93852.50;;;9.44;100.00
12775;BME280;6451;42.630;23.382;2024-02-26T00:09:01;93863.31;;;9.60;100.00
12775;BME280;6451;42.630;23.382;2024-02-26T00:11:31;93929.31;;;10.02;100.00
12775;BME280;6451;42.630;23.382;2024-02-26T00:13:59;93844.19;;;9.53;100.00
12775;BME280;6451;42.630;23.382;2024-02-26T00:16:27;93932.63;;;10.12;100.00
12775;BME280;6451;42.630;23.382;2024-02-26T00:18:54;93935.63;;;10.22;100.00
12775;BME280;6451;42.630;23.382;2024-02-26T00:21:22;93880.91;;;10.01;100.00
12775;BME280;6451;42.630;23.382;2024-02-26T00:23:53;93804.34;;;9.53;100.00
12775;BME280;6451;42.630;23.382;2024-02-26T00:26:22;93927.44;;;10.38;100.00
12775;BME280;6451;42.630;23.382;2024-02-26T00:28:50;93928.75;;;10.44;100.00
12775;BME280;6451;42.630;23.382;2024-02-26T00:31:36;93927.59;;;10.65;100.00
12775;BME280;6451;42.630;23.382;2024-02-26T00:34:04;93794.22;;;9.85;100.00
12775;BME280;6451;42.630;23.382;2024-02-26T00:36:30;93925.34;;;10.67;100.00
12775;BME280;6451;42.630;23.382;2024-02-26T00:39:01;93921.91;;;10.70;100.00
12775;BME280;6451;42.630;23.382;2024-02-26T00:41:29;93800.16;;;9.91;100.00
12775;BME280;6451;42.630;23.382;2024-02-26T00:43:56;93835.97;;;10.19;100.00
12775;BME280;6451;42.630;23.382;2024-02-26T00:46:22;93912.63;;;10.71;100.00
12775;BME280;6451;42.630;23.382;2024-02-26T00:48:50;93909.41;;;10.65;100.00
12775;BME280;6451;42.630;23.382;2024-02-26T00:51:17;93906.53;;;10.39;100.00
12775;BME280;6451;42.630;23.382;2024-02-26T00:53:44;93866.50;;;10.32;100.00
12775;BME280;6451;42.630;23.382;2024-02-26T00:56:15;93869.66;;;10.18;100.00
12775;BME280;6451;42.630;23.382;2024-02-26T00:58:43;93904.09;;;10.34;100.00
12775;BME280;6451;42.630;23.382;2024-02-26T01:01:10;93866.00;;;10.11;100.00
12775;BME280;6451;42.630;23.382;2024-02-26T01:03:36;93873.81;;;10.12;100.00
12775;BME280;6451;42.630;23.382;2024-02-26T01:06:05;93801.59;;;9.69;100.00
12775;BME280;6451;42.630;23.382;2024-02-26T01:08:32;93792.03;;;9.56;100.00
12775;BME280;6451;42.630;23.382;2024-02-26T01:11:01;93887.66;;;10.26;100.00
12775;BME280;6451;42.630;23.382;2024-02-26T01:13:30;93754.66;;;9.45;100.00
12775;BME280;6451;42.630;23.382;2024-02-26T01:15:56;93891.91;;;10.43;100.00
12775;BME280;6451;42.630;23.382;2024-02-26T01:18:23;93820.69;;;9.92;100.00
12775;BME280;6451;42.630;23.382;2024-02-26T01:20:51;93846.03;;;10.19;100.00
12775;BME280;6451;42.630;23.382;2024-02-26T01:23:19;93893.53;;;10.48;100.00
12775;BME280;6451;42.630;23.382;2024-02-26T01:25:48;93668.56;;;9.00;100.00
12775;BME280;6451;42.630;23.382;2024-02-26T01:28:16;93844.41;;;10.14;100.00
12775;BME280;6451;42.630;23.382;2024-02-26T01:30:45;93805.47;;;9.87;100.00
12775;BME280;6451;42.630;23.382;2024-02-26T01:33:12;93883.25;;;10.57;100.00
12775;BME280;6451;42.630;23.382;2024-02-26T01:35:40;93840.38;;;10.24;100.00
12775;BME280;6451;42.630;23.382;2024-02-26T01:38:07;93881.91;;;10.47;100.00
12775;BME280;6451;42.630;23.382;2024-02-26T01:40:36;93883.97;;;10.35;100.00
12775;BME280;6451;42.630;23.382;2024-02-26T01:43:03;93882.19;;;10.23;100.00
12775;BME280;6451;42.630;23.382;2024-02-26T01:45:31;93870.72;;;10.14;100.00
12775;BME280;6451;42.630;23.382;2024-02-26T01:47:59;93797.00;;;9.54;100.00
12775;BME280;6451;42.630;23.382;2024-02-26T01:50:27;93852.44;;;9.91;100.00
12775;BME280;6451;42.630;23.382;2024-02-26T01:52:56;93866.69;;;10.23;100.00
12775;BME280;6451;42.630;23.382;2024-02-26T01:55:24;93857.59;;;10.16;100.00
12775;BME280;6451;42.630;23.382;2024-02-26T01:57:53;93764.13;;;9.36;100.00
12775;BME280;6451;42.630;23.382;2024-02-26T02:00:21;93868.78;;;10.30;100.00
12775;BME280;6451;42.630;23.382;2024-02-26T02:02:48;93795.38;;;9.84;100.00
12775;BME280;6451;42.630;23.382;2024-02-26T02:05:20;93864.66;;;10.36;100.00
12775;BME280;6451;42.630;23.382;2024-02-26T02:07:48;93829.19;;;10.10;100.00
12775;BME280;6451;42.630;23.382;2024-02-26T02:10:15;93864.03;;;10.27;100.00
12775;BME280;6451;42.630;23.382;2024-02-26T02:12:43;93858.13;;;10.21;100.00
12775;BME280;6451;42.630;23.382;2024-02-26T02:15:10;93810.22;;;9.90;100.00
12775;BME280;6451;42.630;23.382;2024-02-26T02:17:37;93786.81;;;9.82;100.00
12775;BME280;6451;42.630;23.382;2024-02-26T02:20:08;93856.88;;;9.99;100.00
12775;BME280;6451;42.630;23.382;2024-02-26T02:22:37;93822.19;;;9.89;100.00
12775;BME280;6451;42.630;23.382;2024-02-26T02:25:05;93866.94;;;10.18;100.00
12775;BME280;6451;42.630;23.382;2024-02-26T02:27:33;93858.84;;;10.02;100.00
12775;BME280;6451;42.630;23.382;2024-02-26T02:30:00;93733.28;;;9.25;100.00
12775;BME280;6451;42.630;23.382;2024-02-26T02:32:27;93766.28;;;9.46;100.00
12775;BME280;6451;42.630;23.382;2024-02-26T02:34:56;93839.66;;;9.92;100.00
12775;BME280;6451;42.630;23.382;2024-02-26T02:37:26;93873.69;;;10.24;100.00
12775;BME280;6451;42.630;23.382;2024-02-26T02:39:57;93842.69;;;10.06;100.00
12775;BME280;6451;42.630;23.382;2024-02-26T02:42:24;93856.72;;;10.12;100.00
12775;BME280;6451;42.630;23.382;2024-02-26T02:44:51;93868.22;;;10.40;100.00
12775;BME280;6451;42.630;23.382;2024-02-26T02:47:20;93831.69;;;9.99;100.00
12775;BME280;6451;42.630;23.382;2024-02-26T02:49:47;93828.03;;;9.91;100.00
12775;BME280;6451;42.630;23.382;2024-02-26T02:52:14;93837.22;;;9.87;100.00
12775;BME280;6451;42.630;23.382;2024-02-26T02:54:42;93809.91;;;9.95;100.00
12775;BME280;6451;42.630;23.382;2024-02-26T02:57:18;93830.69;;;10.07;100.00
12775;BME280;6451;42.630;23.382;2024-02-26T02:59:50;93879.91;;;10.25;100.00
12775;BME280;6451;42.630;23.382;2024-02-26T03:02:17;93807.25;;;9.80;100.00
12775;BME280;6451;42.630;23.382;2024-02-26T03:04:45;93881.13;;;10.27;100.00
12775;BME280;6451;42.630;23.382;2024-02-26T03:07:12;93818.50;;;9.97;100.00
12775;BME280;6451;42.630;23.382;2024-02-26T03:09:40;93890.19;;;10.54;100.00
12775;BME280;6451;42.630;23.382;2024-02-26T03:12:07;93868.34;;;10.28;100.00
12775;BME280;6451;42.630;23.382;2024-02-26T03:14:36;93875.44;;;10.52;100.00
12775;BME280;6451;42.630;23.382;2024-02-26T03:17:04;93807.16;;;10.11;100.00
12775;BME280;6451;42.630;23.382;2024-02-26T03:19:34;93884.13;;;10.61;100.00
12775;BME280;6451;42.630;23.382;2024-02-26T03:22:01;93821.25;;;10.36;100.00
12775;BME280;6451;42.630;23.382;2024-02-26T03:24:28;93786.53;;;10.07;100.00
12775;BME280;6451;42.630;23.382;2024-02-26T03:26:56;93871.78;;;10.64;100.00
12775;BME280;6451;42.630;23.382;2024-02-26T03:29:24;93858.38;;;10.51;100.00
12775;BME280;6451;42.630;23.382;2024-02-26T03:31:52;93838.16;;;10.29;100.00
12775;BME280;6451;42.630;23.382;2024-02-26T03:34:19;93847.19;;;10.18;100.00
12775;BME280;6451;42.630;23.382;2024-02-26T03:36:48;93864.16;;;10.15;100.00
12775;BME280;6451;42.630;23.382;2024-02-26T03:39:17;93856.44;;;10.17;100.00
12775;BME280;6451;42.630;23.382;2024-02-26T03:41:44;93836.59;;;9.93;100.00
12775;BME280;6451;42.630;23.382;2024-02-26T03:44:11;93831.94;;;9.94;100.00
12775;BME280;6451;42.630;23.382;2024-02-26T03:46:39;93844.09;;;10.19;100.00
12775;BME280;6451;42.630;23.382;2024-02-26T03:49:12;93806.00;;;9.93;100.00
12775;BME280;6451;42.630;23.382;2024-02-26T03:51:40;93681.91;;;9.09;100.00
12775;BME280;6451;42.630;23.382;2024-02-26T03:54:07;93768.22;;;9.65;100.00
12775;BME280;6451;42.630;23.382;2024-02-26T03:56:35;93853.53;;;10.06;100.00
12775;BME280;6451;42.630;23.382;2024-02-26T03:59:02;93837.00;;;9.95;100.00
12775;BME280;6451;42.630;23.382;2024-02-26T04:01:31;93852.69;;;9.86;100.00
12775;BME280;6451;42.630;23.382;2024-02-26T04:04:00;93785.84;;;9.39;100.00
12775;BME280;6451;42.630;23.382;2024-02-26T04:06:31;93847.81;;;9.76;100.00
12775;BME280;6451;42.630;23.382;2024-02-26T04:08:58;93728.81;;;8.97;100.00
12775;BME280;6451;42.630;23.382;2024-02-26T04:11:26;93847.84;;;9.60;100.00
12775;BME280;6451;42.630;23.382;2024-02-26T04:13:56;93815.56;;;9.71;100.00
12775;BME280;6451;42.630;23.382;2024-02-26T04:16:22;93842.00;;;9.93;100.00
12775;BME280;6451;42.630;23.382;2024-02-26T04:18:49;93778.06;;;9.54;100.00
12775;BME280;6451;42.630;23.382;2024-02-26T04:21:16;93782.19;;;9.32;100.00
12775;BME280;6451;42.630;23.382;2024-02-26T04:23:45;93846.59;;;9.89;100.00
12775;BME280;6451;42.630;23.382;2024-02-26T04:26:11;93829.38;;;9.82;100.00
12775;BME280;6451;42.630;23.382;2024-02-26T04:28:38;93780.59;;;9.46;100.00
12775;BME280;6451;42.630;23.382;2024-02-26T04:31:05;93779.56;;;9.51;100.00
12775;BME280;6451;42.630;23.382;2024-02-26T04:33:34;93832.53;;;10.03;100.00
12775;BME280;6451;42.630;23.382;2024-02-26T04:36:01;93826.75;;;9.85;100.00
12775;BME280;6451;42.630;23.382;2024-02-26T04:38:29;93771.63;;;9.11;100.00
12775;BME280;6451;42.630;23.382;2024-02-26T04:40:57;93829.94;;;9.56;100.00
12775;BME280;6451;42.630;23.382;2024-02-26T04:43:25;93778.09;;;9.22;100.00
12775;BME280;6451;42.630;23.382;2024-02-26T04:45:53;93650.97;;;8.27;100.00
12775;BME280;6451;42.630;23.382;2024-02-26T04:48:22;93820.00;;;9.44;100.00
12775;BME280;6451;42.630;23.382;2024-02-26T04:50:50;93842.63;;;9.52;100.00
12775;BME280;6451;42.630;23.382;2024-02-26T04:53:19;93830.38;;;9.58;100.00
12775;BME280;6451;42.630;23.382;2024-02-26T04:55:46;93741.47;;;8.93;100.00
12775;BME280;6451;42.630;23.382;2024-02-26T04:58:16;93844.88;;;9.50;100.00
12775;BME280;6451;42.630;23.382;2024-02-26T05:00:43;93852.97;;;9.65;100.00
12775;BME280;6451;42.630;23.382;2024-02-26T05:03:10;93729.13;;;9.11;100.00
12775;BME280;6451;42.630;23.382;2024-02-26T05:05:41;93844.78;;;9.62;100.00
12775;BME280;6451;42.630;23.382;2024-02-26T05:08:09;93812.03;;;9.35;100.00
12775;BME280;6451;42.630;23.382;2024-02-26T05:10:36;93854.91;;;9.65;100.00
12775;BME280;6451;42.630;23.382;2024-02-26T05:13:06;93842.16;;;9.50;100.00
12775;BME280;6451;42.630;23.382;2024-02-26T05:15:35;93871.50;;;9.63;100.00
12775;BME280;6451;42.630;23.382;2024-02-26T05:18:02;93807.53;;;9.24;100.00
12775;BME280;6451;42.630;23.382;2024-02-26T05:20:29;93749.03;;;8.87;100.00
12775;BME280;6451;42.630;23.382;2024-02-26T05:23:09;93815.41;;;9.13;100.00
12775;BME280;6451;42.630;23.382;2024-02-26T05:25:36;93833.47;;;9.09;100.00
12775;BME280;6451;42.630;23.382;2024-02-26T05:28:08;93861.41;;;9.44;100.00
12775;BME280;6451;42.630;23.382;2024-02-26T05:30:37;93878.63;;;9.36;100.00
12775;BME280;6451;42.630;23.382;2024-02-26T05:33:05;93876.25;;;9.35;100.00
12775;BME280;6451;42.630;23.382;2024-02-26T05:35:41;93878.09;;;9.46;100.00
12775;BME280;6451;42.630;23.382;2024-02-26T05:38:08;93831.28;;;8.99;100.00
12775;BME280;6451;42.630;23.382;2024-02-26T05:40:36;93869.44;;;9.25;100.00
12775;BME280;6451;42.630;23.382;2024-02-26T05:43:04;93881.47;;;9.28;100.00
12775;BME280;6451;42.630;23.382;2024-02-26T05:45:32;93880.25;;;9.41;100.00
12775;BME280;6451;42.630;23.382;2024-02-26T05:48:01;93897.47;;;9.64;100.00
12775;BME280;6451;42.630;23.382;2024-02-26T05:50:28;93888.28;;;9.69;100.00
12775;BME280;6451;42.630;23.382;2024-02-26T05:52:55;93822.56;;;9.21;100.00
12775;BME280;6451;42.630;23.382;2024-02-26T05:55:23;93882.88;;;9.69;100.00
12775;BME280;6451;42.630;23.382;2024-02-26T05:57:54;93886.28;;;9.82;100.00
12775;BME280;6451;42.630;23.382;2024-02-26T06:00:26;93895.97;;;9.83;100.00
12775;BME280;6451;42.630;23.382;2024-02-26T06:02:57;93853.69;;;9.62;100.00
12775;BME280;6451;42.630;23.382;2024-02-26T06:05:26;93801.06;;;9.44;100.00
12775;BME280;6451;42.630;23.382;2024-02-26T06:07:55;93844.41;;;9.79;100.00
12775;BME280;6451;42.630;23.382;2024-02-26T06:10:21;93895.91;;;10.30;100.00
12775;BME280;6451;42.630;23.382;2024-02-26T06:12:51;93887.34;;;10.28;100.00
12775;BME280;6451;42.630;23.382;2024-02-26T06:15:18;93910.06;;;10.58;100.00
12775;BME280;6451;42.630;23.382;2024-02-26T06:17:57;93918.75;;;10.48;100.00
12775;BME280;6451;42.630;23.382;2024-02-26T06:20:26;93895.63;;;10.35;100.00
12775;BME280;6451;42.630;23.382;2024-02-26T06:22:56;93914.88;;;10.49;100.00
12775;BME280;6451;42.630;23.382;2024-02-26T06:25:23;93916.47;;;10.70;100.00
12775;BME280;6451;42.630;23.382;2024-02-26T06:27:53;93895.06;;;10.45;100.00
12775;BME280;6451;42.630;23.382;2024-02-26T06:30:22;93767.75;;;9.79;100.00
12775;BME280;6451;42.630;23.382;2024-02-26T06:32:52;93790.56;;;9.78;100.00
12775;BME280;6451;42.630;23.382;2024-02-26T06:35:19;93926.34;;;10.78;100.00
12775;BME280;6451;42.630;23.382;2024-02-26T06:37:51;93928.63;;;10.76;100.00
12775;BME280;6451;42.630;23.382;2024-02-26T06:40:18;93922.41;;;10.56;100.00
12775;BME280;6451;42.630;23.382;2024-02-26T06:42:48;93907.31;;;10.39;100.00
12775;BME280;6451;42.630;23.382;2024-02-26T06:45:15;93926.13;;;10.67;100.00
12775;BME280;6451;42.630;23.382;2024-02-26T06:47:43;93920.25;;;10.65;100.00
12775;BME280;6451;42.630;23.382;2024-02-26T06:50:12;93922.34;;;10.91;100.00
12775;BME280;6451;42.630;23.382;2024-02-26T06:52:43;93921.34;;;10.61;100.00
12775;BME280;6451;42.630;23.382;2024-02-26T06:55:12;93914.69;;;10.58;100.00
12775;BME280;6451;42.630;23.382;2024-02-26T06:57:40;93896.47;;;10.39;100.00
12775;BME280;6451;42.630;23.382;2024-02-26T07:00:12;93924.75;;;10.77;100.00
12775;BME280;6451;42.630;23.382;2024-02-26T07:02:40;93922.97;;;10.65;100.00
12775;BME280;6451;42.630;23.382;2024-02-26T07:05:10;93918.78;;;10.68;100.00
12775;BME280;6451;42.630;23.382;2024-02-26T07:07:37;93926.13;;;10.86;100.00
12775;BME280;6451;42.630;23.382;2024-02-26T07:10:05;93929.41;;;10.76;100.00
12775;BME280;6451;42.630;23.382;2024-02-26T07:12:34;93934.69;;;10.89;100.00
12775;BME280;6451;42.630;23.382;2024-02-26T07:15:02;93941.25;;;10.88;100.00
12775;BME280;6451;42.630;23.382;2024-02-26T07:17:31;93931.78;;;10.97;100.00
12775;BME280;6451;42.630;23.382;2024-02-26T07:19:59;93942.19;;;10.95;100.00
12775;BME280;6451;42.630;23.382;2024-02-26T07:22:28;93937.13;;;10.94;100.00
12775;BME280;6451;42.630;23.382;2024-02-26T07:24:57;93919.03;;;11.21;100.00
12775;BME280;6451;42.630;23.382;2024-02-26T07:27:24;93938.47;;;11.46;100.00
12775;BME280;6451;42.630;23.382;2024-02-26T07:29:56;93934.19;;;11.45;100.00
12775;BME280;6451;42.630;23.382;2024-02-26T07:32:23;93927.00;;;11.33;100.00
12775;BME280;6451;42.630;23.382;2024-02-26T07:34:50;93942.59;;;11.36;100.00
12775;BME280;6451;42.630;23.382;2024-02-26T07:37:18;93938.41;;;11.42;100.00
12775;BME280;6451;42.630;23.382;2024-02-26T07:39:47;93859.38;;;11.05;100.00
12775;BME280;6451;42.630;23.382;2024-02-26T07:42:14;93940.78;;;11.66;100.00
12775;BME280;6451;42.630;23.382;2024-02-26T07:44:41;93921.53;;;11.75;100.00
12775;BME280;6451;42.630;23.382;2024-02-26T07:47:10;93954.19;;;11.79;100.00
12775;BME280;6451;42.630;23.382;2024-02-26T07:49:40;93930.41;;;11.95;100.00
12775;BME280;6451;42.630;23.382;2024-02-26T07:52:07;93946.78;;;11.99;100.00
12775;BME280;6451;42.630;23.382;2024-02-26T07:54:35;93956.50;;;12.00;100.00
12775;BME280;6451;42.630;23.382;2024-02-26T07:57:03;93926.19;;;11.98;100.00
12775;BME280;6451;42.630;23.382;2024-02-26T07:59:31;93942.47;;;12.20;100.00
12775;BME280;6451;42.630;23.382;2024-02-26T08:01:58;93908.84;;;11.83;100.00
12775;BME280;6451;42.630;23.382;2024-02-26T08:04:30;93930.44;;;12.21;100.00
12775;BME280;6451;42.630;23.382;2024-02-26T08:06:57;93928.50;;;12.22;100.00
12775;BME280;6451;42.630;23.382;2024-02-26T08:09:25;93930.31;;;12.14;100.00
12775;BME280;6451;42.630;23.382;2024-02-26T08:11:52;93935.19;;;12.28;100.00
12775;BME280;6451;42.630;23.382;2024-02-26T08:14:20;93864.06;;;12.00;100.00
12775;BME280;6451;42.630;23.382;2024-02-26T08:16:48;93907.91;;;12.81;100.00
12775;BME280;6451;42.630;23.382;2024-02-26T08:19:17;93916.97;;;13.26;100.00
12775;BME280;6451;42.630;23.382;2024-02-26T08:25:11;93913.31;;;13.48;100.00
12775;BME280;6451;42.630;23.382;2024-02-26T08:27:39;93933.75;;;13.65;100.00
12775;BME280;6451;42.630;23.382;2024-02-26T08:30:09;93935.66;;;13.64;100.00
12775;BME280;6451;42.630;23.382;2024-02-26T08:32:42;93927.41;;;13.54;100.00
12775;BME280;6451;42.630;23.382;2024-02-26T08:35:09;93932.63;;;13.32;100.00
12775;BME280;6451;42.630;23.382;2024-02-26T08:37:37;93916.97;;;13.26;100.00
12775;BME280;6451;42.630;23.382;2024-02-26T08:40:07;93927.38;;;13.50;100.00
12775;BME280;6451;42.630;23.382;2024-02-26T08:42:34;93939.28;;;13.76;100.00
12775;BME280;6451;42.630;23.382;2024-02-26T08:45:02;93926.19;;;13.92;100.00
12775;BME280;6451;42.630;23.382;2024-02-26T08:47:35;93937.28;;;14.13;100.00
12775;BME280;6451;42.630;23.382;2024-02-26T08:50:02;93924.25;;;13.93;100.00
12775;BME280;6451;42.630;23.382;2024-02-26T08:52:30;93930.59;;;14.04;100.00
12775;BME280;6451;42.630;23.382;2024-02-26T08:54:58;93930.28;;;13.72;100.00
12775;BME280;6451;42.630;23.382;2024-02-26T08:57:29;93936.94;;;13.74;100.00
12775;BME280;6451;42.630;23.382;2024-02-26T08:59:58;93928.72;;;13.71;100.00
12775;BME280;6451;42.630;23.382;2024-02-26T09:02:25;93920.94;;;13.69;100.00
12775;BME280;6451;42.630;23.382;2024-02-26T09:04:52;93924.94;;;13.82;100.00
12775;BME280;6451;42.630;23.382;2024-02-26T09:07:20;93921.00;;;13.76;100.00
12775;BME280;6451;42.630;23.382;2024-02-26T09:09:47;93918.53;;;13.64;100.00
12775;BME280;6451;42.630;23.382;2024-02-26T09:12:18;93921.81;;;13.80;100.00
12775;BME280;6451;42.630;23.382;2024-02-26T09:14:47;93930.53;;;13.97;100.00
12775;BME280;6451;42.630;23.382;2024-02-26T09:17:14;93922.78;;;14.06;100.00
12775;BME280;6451;42.630;23.382;2024-02-26T09:19:41;93831.97;;;13.50;100.00
12775;BME280;6451;42.630;23.382;2024-02-26T09:22:09;93926.44;;;14.24;100.00
12775;BME280;6451;42.630;23.382;2024-02-26T09:24:36;93917.00;;;14.14;100.00
12775;BME280;6451;42.630;23.382;2024-02-26T09:27:05;93921.31;;;14.15;100.00
12775;BME280;6451;42.630;23.382;2024-02-26T09:29:32;93895.97;;;14.15;100.00
12775;BME280;6451;42.630;23.382;2024-02-26T09:32:02;93913.94;;;14.23;100.00
12775;BME280;6451;42.630;23.382;2024-02-26T09:34:30;93763.84;;;13.06;100.00
12775;BME280;6451;42.630;23.382;2024-02-26T09:36:59;93914.78;;;14.31;100.00
12775;BME280;6451;42.630;23.382;2024-02-26T09:39:26;93915.69;;;14.49;100.00
12775;BME280;6451;42.630;23.382;2024-02-26T09:41:57;93870.28;;;14.23;100.00
12775;BME280;6451;42.630;23.382;2024-02-26T09:44:25;93836.84;;;14.40;100.00
12775;BME280;6451;42.630;23.382;2024-02-26T09:46:56;93896.84;;;15.02;100.00
12775;BME280;6451;42.630;23.382;2024-02-26T09:49:24;93916.81;;;15.24;100.00
12775;BME280;6451;42.630;23.382;2024-02-26T09:51:52;93916.47;;;15.37;100.00
12775;BME280;6451;42.630;23.382;2024-02-26T09:54:23;93879.63;;;14.95;100.00
12775;BME280;6451;42.630;23.382;2024-02-26T09:57:03;93853.81;;;14.78;100.00
12775;BME280;6451;42.630;23.382;2024-02-26T09:59:38;93778.78;;;14.43;100.00
12775;BME280;6451;42.630;23.382;2024-02-26T10:02:08;93910.44;;;14.85;100.00
12775;BME280;6451;42.630;23.382;2024-02-26T10:04:39;93885.38;;;14.72;100.00
12775;BME280;6451;42.630;23.382;2024-02-26T10:07:13;93893.28;;;14.91;100.00
12775;BME280;6451;42.630;23.382;2024-02-26T10:09:41;93920.59;;;14.91;100.00
12775;BME280;6451;42.630;23.382;2024-02-26T10:12:10;93899.03;;;14.72;100.00
12775;BME280;6451;42.630;23.382;2024-02-26T10:14:38;93859.75;;;15.01;100.00
12775;BME280;6451;42.630;23.382;2024-02-26T10:17:07;93897.31;;;15.33;100.00
12775;BME280;6451;42.630;23.382;2024-02-26T10:19:38;93880.09;;;15.04;100.00
12775;BME280;6451;42.630;23.382;2024-02-26T10:22:08;93885.84;;;14.81;100.00
12775;BME280;6451;42.630;23.382;2024-02-26T10:24:36;93860.81;;;14.72;100.00
12775;BME280;6451;42.630;23.382;2024-02-26T10:27:05;93855.41;;;14.86;100.00
12775;BME280;6451;42.630;23.382;2024-02-26T10:29:33;93812.41;;;14.62;100.00
12775;BME280;6451;42.630;23.382;2024-02-26T10:32:06;93886.75;;;15.14;100.00
12775;BME280;6451;42.630;23.382;2024-02-26T10:34:35;93889.94;;;15.44;100.00
12775;BME280;6451;42.630;23.382;2024-02-26T10:37:07;93888.28;;;15.04;100.00
12775;BME280;6451;42.630;23.382;2024-02-26T10:39:36;93862.44;;;14.87;100.00
12775;BME280;6451;42.630;23.382;2024-02-26T10:42:04;93832.66;;;14.50;100.00
12775;BME280;6451;42.630;23.382;2024-02-26T10:44:35;93871.81;;;14.93;100.00
12775;BME280;6451;42.630;23.382;2024-02-26T10:47:03;93863.59;;;14.86;100.00
12775;BME280;6451;42.630;23.382;2024-02-26T10:49:31;93815.88;;;14.52;100.00
12775;BME280;6451;42.630;23.382;2024-02-26T10:52:00;93864.09;;;15.24;100.00
12775;BME280;6451;42.630;23.382;2024-02-26T10:54:39;93865.63;;;15.04;100.00
12775;BME280;6451;42.630;23.382;2024-02-26T10:57:09;93862.16;;;15.21;99.40
12775;BME280;6451;42.630;23.382;2024-02-26T10:59:38;93844.22;;;15.38;97.97
12775;BME280;6451;42.630;23.382;2024-02-26T11:02:08;93854.03;;;15.60;94.95
12775;BME280;6451;42.630;23.382;2024-02-26T11:04:39;93859.09;;;15.54;94.43
12775;BME280;6451;42.630;23.382;2024-02-26T11:07:09;93867.25;;;15.26;95.51
12775;BME280;6451;42.630;23.382;2024-02-26T11:09:40;93858.31;;;15.54;94.22
12775;BME280;6451;42.630;23.382;2024-02-26T11:12:10;93829.38;;;15.21;95.20
12775;BME280;6451;42.630;23.382;2024-02-26T11:14:39;93853.56;;;15.33;95.81
12775;BME280;6451;42.630;23.382;2024-02-26T11:17:08;93837.16;;;15.15;96.12
12775;BME280;6451;42.630;23.382;2024-02-26T11:19:38;93861.00;;;15.18;96.66
12775;BME280;6451;42.630;23.382;2024-02-26T11:22:08;93853.56;;;15.15;97.04
12775;BME280;6451;42.630;23.382;2024-02-26T11:24:40;93854.03;;;15.60;95.29
12775;BME280;6451;42.630;23.382;2024-02-26T11:27:10;93818.06;;;15.40;93.69
12775;BME280;6451;42.630;23.382;2024-02-26T11:29:47;93848.91;;;15.34;93.83
12775;BME280;6451;42.630;23.382;2024-02-26T11:32:14;93851.31;;;15.78;90.06
12775;BME280;6451;42.630;23.382;2024-02-26T11:34:43;93805.19;;;15.51;90.10
12775;BME280;6451;42.630;23.382;2024-02-26T11:37:11;93839.16;;;15.54;91.16
12775;BME280;6451;42.630;23.382;2024-02-26T11:39:42;93835.22;;;15.41;90.80
12775;BME280;6451;42.630;23.382;2024-02-26T11:42:15;93836.47;;;15.61;90.57
12775;BME280;6451;42.630;23.382;2024-02-26T11:44:48;93839.19;;;15.50;89.05
12775;BME280;6451;42.630;23.382;2024-02-26T11:47:36;93840.75;;;15.58;86.94
12775;BME280;6451;42.630;23.382;2024-02-26T11:50:32;93834.84;;;15.35;89.27
12775;BME280;6451;42.630;23.382;2024-02-26T11:53:20;93823.56;;;15.83;87.37
12775;BME280;6451;42.630;23.382;2024-02-26T11:58:59;93817.28;;;15.36;87.44
12775;BME280;6451;42.630;23.382;2024-02-26T12:01:42;93837.59;;;15.60;86.30
12775;BME280;6451;42.630;23.382;2024-02-26T12:04:13;93841.16;;;15.85;85.21
12775;BME280;6451;42.630;23.382;2024-02-26T12:06:50;93840.38;;;15.74;86.14
12775;BME280;6451;42.630;23.382;2024-02-26T12:09:34;93839.59;;;15.74;85.60
12775;BME280;6451;42.630;23.382;2024-02-26T12:12:08;93827.47;;;15.89;84.44
12775;BME280;6451;42.630;23.382;2024-02-26T12:14:38;93838.81;;;16.05;81.74
12775;BME280;6451;42.630;23.382;2024-02-26T12:17:06;93840.75;;;16.05;83.13
12775;BME280;6451;42.630;23.382;2024-02-26T12:19:37;93838.38;;;16.18;82.07
12775;BME280;6451;42.630;23.382;2024-02-26T12:22:07;93837.91;;;16.51;80.87
12775;BME280;6451;42.630;23.382;2024-02-26T12:24:40;93837.56;;;16.42;79.89
12775;BME280;6451;42.630;23.382;2024-02-26T12:27:08;93842.22;;;16.52;78.54
12775;BME280;6451;42.630;23.382;2024-02-26T12:29:39;93842.63;;;16.40;77.57
12775;BME280;6451;42.630;23.382;2024-02-26T12:32:07;93842.94;;;16.63;76.41
12775;BME280;6451;42.630;23.382;2024-02-26T12:34:34;93843.78;;;16.53;76.36
12775;BME280;6451;42.630;23.382;2024-02-26T12:37:01;93816.84;;;16.30;75.21
12775;BME280;6451;42.630;23.382;2024-02-26T12:39:29;93839.09;;;16.57;75.21
12775;BME280;6451;42.630;23.382;2024-02-26T12:41:57;93842.25;;;16.45;75.53
12775;BME280;6451;42.630;23.382;2024-02-26T12:44:31;93834.03;;;16.42;75.57
12775;BME280;6451;42.630;23.382;2024-02-26T12:47:00;93825.75;;;16.56;73.17
12775;BME280;6451;42.630;23.382;2024-02-26T12:49:28;93808.16;;;16.53;71.95
12775;BME280;6451;42.630;23.382;2024-02-26T12:51:55;93824.59;;;16.60;72.88
12775;BME280;6451;42.630;23.382;2024-02-26T12:54:26;93769.63;;;15.98;72.03
12775;BME280;6451;42.630;23.382;2024-02-26T12:56:54;93829.25;;;16.74;72.59
12775;BME280;6451;42.630;23.382;2024-02-26T12:59:26;93827.66;;;16.84;70.99
12775;BME280;6451;42.630;23.382;2024-02-26T13:01:58;93796.03;;;16.54;69.62
12775;BME280;6451;42.630;23.382;2024-02-26T13:04:29;93804.53;;;16.88;68.83
12775;BME280;6451;42.630;23.382;2024-02-26T13:06:57;93822.06;;;17.05;68.34
12775;BME280;6451;42.630;23.382;2024-02-26T13:09:30;93735.22;;;16.04;68.01
12775;BME280;6451;42.630;23.382;2024-02-26T13:12:03;93786.31;;;16.32;68.11